Date,TemperatureHighF,TemperatureAvgF,TemperatureLowF,DewpointHighF,DewpointAvgF,DewpointLowF,HumidityHigh,HumidityAvg,HumidityLow,PressureMaxIn,PressureMinIn,WindSpeedMaxMPH,WindSpeedAvgMPH,GustSpeedMaxMPH,PrecipitationSumIn
2013-1-1,52,47,39,50,44,37,95,93,79,30.14,29.99,14,2,0,1.16
2013-1-2,39,35,33,37,32,30,93,89,86,30.27,30.11,9,2,0,0.00
2013-1-3,45,34,27,32,28,24,91,79,51,30.44,30.23,9,2,0,0.00
2013-1-4,48,34,24,28,24,21,92,70,43,30.52,30.40,9,1,0,0.00
2013-1-5,48,37,25,37,29,22,92,76,47,30.45,30.31,6,0,0,0.05
2013-1-6,49,41,34,40,36,30,93,84,65,30.37,30.23,11,2,0,0.01
2013-1-7,53,37,27,34,28,24,91,74,44,30.44,30.30,9,1,0,0.00
2013-1-8,60,49,35,45,39,30,85,70,54,30.38,30.26,11,2,0,0.00
2013-1-9,58,54,50,56,52,45,95,91,79,30.40,30.29,7,0,0,0.53
2013-1-10,66,61,57,61,58,54,94,90,84,30.36,30.04,16,3,0,0.04
2013-1-11,68,65,62,63,62,60,95,90,83,30.12,30.02,13,3,0,0.11
2013-1-12,71,67,65,66,64,59,95,89,79,30.08,29.92,11,2,0,0.06
2013-1-13,70,60,40,65,57,37,95,89,79,30.16,29.87,16,4,0,1.07
2013-1-14,40,35,32,37,33,30,93,90,87,30.32,30.15,13,4,0,0.56
2013-1-15,39,36,34,37,34,32,94,93,92,30.21,30.00,15,2,0,1.32
2013-1-16,38,37,36,36,35,34,94,93,91,30.14,30.01,12,2,0,0.20
2013-1-17,41,37,33,36,33,28,92,85,74,30.44,29.96,19,6,0,0.13
2013-1-18,52,37,27,36,30,24,94,78,36,30.62,30.44,7,1,0,0.01
2013-1-19,56,40,27,36,30,24,95,73,40,30.45,30.24,12,1,0,0.00
2013-1-20,61,42,29,41,34,27,95,76,43,30.28,30.17,8,1,0,0.00
2013-1-21,47,37,29,31,22,16,92,59,34,30.31,30.15,15,3,0,0.00
2013-1-22,40,32,23,20,16,12,69,54,37,30.45,30.30,12,2,0,0.00
2013-1-23,57,44,32,39,29,19,69,57,43,30.42,30.21,10,2,0,0.00
2013-1-24,47,40,34,38,24,16,82,54,37,30.43,30.22,12,2,0,0.00
2013-1-25,48,43,38,46,34,18,93,73,42,30.29,30.12,11,2,0,0.15
2013-1-26,52,41,32,36,33,30,92,75,49,30.36,30.23,10,1,0,0.00
2013-1-27,51,46,38,41,37,31,78,71,64,30.39,30.29,12,2,0,0.00
2013-1-28,64,55,47,54,47,37,89,75,65,30.34,30.18,9,2,0,0.00
2013-1-29,69,61,52,64,58,50,93,88,81,30.19,29.73,16,2,0,0.00
2013-1-30,71,54,37,65,49,26,94,84,61,29.97,29.55,23,6,0,1.09
2013-1-31,50,40,31,31,27,22,79,62,41,30.20,29.97,15,5,0,0.00
2013-2-1,43,31,23,34,16,10,79,58,37,30.50,30.21,20,4,0,0.00
2013-2-2,43,33,25,39,27,17,93,79,62,30.40,30.16,10,1,0,0.06
2013-2-3,56,41,30,39,30,27,95,70,35,30.20,30.10,16,3,0,0.01
2013-2-4,52,41,29,36,31,25,89,68,41,30.16,29.97,8,1,0,0.00
2013-2-5,65,51,38,48,42,35,93,75,50,30.08,29.97,9,1,0,0.03
2013-2-6,66,49,33,44,37,31,95,67,35,30.23,30.08,8,0,0,0.00
2013-2-7,59,52,48,48,45,37,90,76,61,30.12,29.95,9,1,0,0.03
2013-2-8,49,44,33,47,39,29,94,83,69,30.31,29.92,14,3,0,0.24
2013-2-9,61,44,31,36,31,27,87,63,32,30.36,30.18,10,1,0,0.00
2013-2-10,58,52,49,56,44,35,93,74,52,30.20,29.91,18,4,0,0.44
2013-2-11,59,53,44,58,46,38,94,78,56,30.21,29.98,6,1,0,0.02
2013-2-12,52,46,38,41,36,32,92,72,47,30.19,29.80,5,0,0,0.19
2013-2-13,46,43,38,43,39,34,94,86,78,30.06,29.72,15,3,0,0.06
2013-2-14,61,44,29,42,35,27,95,74,37,30.13,30.05,11,1,0,0.00
2013-2-15,57,43,32,43,34,27,95,73,50,30.16,30.09,12,2,0,0.00
2013-2-16,40,34,28,27,18,12,74,54,39,30.26,30.13,16,4,0,0.00
2013-2-17,50,34,18,25,19,12,89,56,30,30.36,30.24,8,1,0,0.00
2013-2-18,61,49,36,42,31,20,87,51,40,30.29,29.92,16,4,0,0.30
2013-2-19,53,45,29,47,31,18,94,61,28,30.26,29.94,16,5,0,0.19
2013-2-20,38,33,26,23,20,17,86,61,48,30.33,30.22,9,2,0,0.00
2013-2-21,56,43,31,46,29,17,92,62,24,30.24,29.86,12,2,0,0.72
2013-2-22,52,49,46,48,46,44,93,89,84,30.10,29.94,11,2,0,0.08
2013-2-23,53,46,36,46,43,33,94,88,73,30.04,29.90,8,1,0,0.01
2013-2-24,60,45,33,35,32,29,93,63,36,30.13,29.98,10,1,0,0.00
2013-2-25,61,50,40,45,37,29,89,62,43,29.98,29.52,17,4,0,0.03
2013-2-26,48,45,40,45,40,34,93,82,67,29.81,29.45,19,6,0,0.28
2013-2-27,55,44,40,40,34,32,76,68,54,29.97,29.82,14,6,0,0.00
2013-2-28,41,38,35,36,29,26,82,68,62,30.11,29.91,12,4,0,0.00
2013-3-1,40,36,33,32,30,28,91,78,65,30.11,30.05,9,2,0,0.00
2013-3-2,36,33,30,31,29,24,91,84,74,30.19,30.06,15,5,0,0.04
2013-3-3,46,34,26,25,21,17,83,63,32,30.21,30.13,12,3,0,0.00
2013-3-4,59,45,29,42,29,24,84,57,34,30.19,29.93,11,2,0,0.00
2013-3-5,58,49,35,55,44,22,94,81,58,30.07,29.70,24,6,0,0.96
2013-3-6,44,36,30,31,26,20,83,66,57,30.32,30.07,18,6,0,0.04
2013-3-7,51,37,26,34,29,22,90,73,51,30.39,30.30,11,2,0,0.00
2013-3-8,63,44,29,33,28,24,88,58,24,30.41,30.25,7,1,0,0.00
2013-3-9,68,53,38,39,34,26,76,50,32,30.27,30.09,10,2,0,0.00
2013-3-10,73,63,53,50,42,36,54,47,38,30.11,29.86,17,4,0,0.00
2013-3-11,66,50,39,53,44,32,93,81,52,30.00,29.79,20,4,0,1.35
2013-3-12,58,43,30,36,32,27,90,66,39,30.20,30.00,12,3,0,0.00
2013-3-13,51,42,31,30,26,22,88,56,34,30.40,30.18,15,4,0,0.00
2013-3-14,57,41,27,33,23,19,77,53,28,30.48,30.27,7,1,0,0.00
2013-3-15,77,58,39,49,39,26,67,51,36,30.27,29.95,15,3,0,0.00
2013-3-16,78,64,52,51,47,44,82,55,38,29.98,29.85,17,4,0,0.00
2013-3-17,73,61,49,56,50,45,89,68,46,29.98,29.84,12,2,0,0.00
2013-3-18,63,59,49,60,55,44,95,86,75,29.96,29.74,17,4,0,0.49
2013-3-19,61,49,35,44,34,22,95,60,27,30.18,29.96,9,2,0,0.00
2013-3-20,58,47,38,31,25,19,67,44,29,30.19,30.01,19,4,0,0.00
2013-3-21,48,37,26,29,18,13,72,49,30,30.13,29.98,14,2,0,0.00
2013-3-22,48,44,39,40,31,22,80,62,47,30.06,29.97,8,1,0,0.02
2013-3-23,54,48,44,51,46,39,94,91,81,29.99,29.68,12,1,0,1.35
2013-3-24,61,51,39,54,45,27,94,80,62,29.82,29.48,32,7,0,0.55
2013-3-25,40,36,34,28,25,23,76,65,55,30.19,29.82,18,8,0,0.00
2013-3-26,40,36,32,29,27,24,79,70,60,30.39,30.18,14,4,0,0.00
2013-3-27,55,40,25,34,28,22,93,67,40,30.44,30.32,13,2,0,0.00
2013-3-28,64,47,31,38,32,28,95,62,33,30.41,30.28,8,1,0,0.00
2013-3-29,69,53,36,42,37,32,89,59,33,30.32,30.16,10,1,0,0.00
2013-3-30,69,56,46,56,48,41,95,75,54,30.20,29.97,8,1,0,0.73
2013-3-31,65,57,54,59,55,52,95,93,80,29.97,29.87,7,1,0,0.30
2013-4-1,67,56,48,55,48,39,96,76,50,30.12,29.92,10,2,0,0.01
2013-4-2,54,48,41,40,30,26,68,51,35,30.26,30.10,11,3,0,0.00
2013-4-3,55,48,42,43,33,25,86,58,38,30.23,30.13,8,1,0,0.07
2013-4-4,46,45,44,44,42,40,92,90,81,30.16,30.00,6,1,0,0.47
2013-4-5,67,53,44,46,42,38,94,70,35,30.14,30.02,12,2,0,0.00
2013-4-6,75,58,39,45,41,36,94,58,30,30.18,30.03,11,1,0,0.00
2013-4-7,75,61,46,53,48,41,86,64,41,30.14,29.99,13,2,0,0.00
2013-4-8,79,67,55,60,55,49,87,68,50,30.09,29.96,17,2,0,0.00
2013-4-9,83,71,58,64,59,54,87,67,47,30.14,29.96,12,1,0,0.00
2013-4-10,86,74,58,62,59,54,89,60,39,30.05,29.81,14,2,0,0.00
2013-4-11,75,67,53,65,60,50,95,79,61,29.84,29.56,15,4,0,0.87
2013-4-12,67,53,42,51,44,38,93,72,41,30.00,29.70,13,3,0,0.00
2013-4-13,73,57,41,48,44,39,93,66,36,30.12,29.99,10,1,0,0.00
2013-4-14,64,56,48,54,48,43,91,75,50,30.02,29.86,11,2,0,0.00
2013-4-15,79,66,52,63,58,49,95,75,55,30.05,29.90,11,2,0,0.00
2013-4-16,82,72,65,70,64,59,86,77,63,30.16,30.04,13,2,0,0.00
2013-4-17,87,76,67,70,66,63,90,72,50,30.17,29.98,12,2,0,0.00
2013-4-18,82,74,66,64,63,60,87,69,49,29.99,29.65,15,4,0,0.00
2013-4-19,74,50,38,66,43,34,93,76,52,30.18,29.63,22,5,0,1.62
2013-4-20,64,49,34,42,35,31,95,64,34,30.30,30.17,12,2,0,0.00
2013-4-21,70,56,44,46,40,35,75,56,33,30.36,30.22,7,1,0,0.00
2013-4-22,73,61,51,51,47,42,84,60,40,30.28,30.11,11,2,0,0.00
2013-4-23,76,65,54,56,51,44,82,62,48,30.18,30.01,13,3,0,0.00
2013-4-24,65,57,47,59,51,39,92,81,71,30.27,29.95,18,4,0,0.32
2013-4-25,67,53,41,43,38,34,86,61,30,30.40,30.25,11,2,0,0.00
2013-4-26,74,58,42,50,42,37,86,60,31,30.40,30.22,10,1,0,0.04
2013-4-27,71,62,54,65,57,50,92,83,72,30.30,29.98,9,1,0,0.12
2013-4-28,67,62,58,64,59,56,95,92,83,30.01,29.89,11,2,0,0.82
2013-4-29,75,63,54,60,56,51,96,80,50,30.04,29.93,12,1,0,0.01
2013-4-30,81,65,48,60,54,46,96,71,42,30.04,29.94,9,1,0,0.00
2013-5-1,76,69,63,61,59,54,84,71,58,30.12,30.01,12,2,0,0.00
2013-5-2,70,66,60,60,57,53,80,74,68,30.15,30.05,12,2,0,0.00
2013-5-3,73,64,45,60,56,43,92,75,59,30.05,29.84,15,4,0,0.39
2013-5-4,52,45,41,46,42,39,94,90,76,30.01,29.89,8,1,0,1.98
2013-5-5,59,49,42,49,46,40,94,88,62,29.93,29.83,8,2,0,0.59
2013-5-6,58,52,49,55,50,47,95,93,83,29.95,29.80,11,2,0,1.14
2013-5-7,71,56,43,56,50,42,96,82,57,30.02,29.92,10,1,0,0.18
2013-5-8,80,64,50,62,57,48,96,78,52,30.09,30.00,8,1,0,0.00
2013-5-9,83,69,53,64,59,52,96,73,47,30.13,30.00,11,1,0,0.00
2013-5-10,74,65,60,65,60,58,93,84,70,30.05,29.91,10,2,0,0.50
2013-5-11,75,66,54,66,60,51,94,81,58,30.03,29.92,15,2,0,0.01
2013-5-12,67,58,45,52,41,35,93,57,32,30.18,30.02,15,3,0,0.00
2013-5-13,72,57,39,49,43,36,94,63,37,30.30,30.17,9,1,0,0.00
2013-5-14,84,67,48,61,54,46,96,66,42,30.22,30.06,11,2,0,0.00
2013-5-15,86,71,55,60,57,53,94,66,37,30.16,30.00,11,2,0,0.00
2013-5-16,84,71,60,65,60,52,90,68,36,30.05,29.95,11,1,0,0.00
2013-5-17,72,67,65,68,64,58,95,89,79,30.05,29.96,6,1,0,0.72
2013-5-18,82,73,66,72,68,64,96,86,68,30.03,29.96,8,1,0,0.00
2013-5-19,84,75,65,74,69,61,96,83,66,30.03,29.95,10,2,0,0.03
2013-5-20,86,74,64,71,66,60,90,79,59,30.06,29.94,6,1,0,0.00
2013-5-21,89,78,66,74,68,64,95,74,51,29.99,29.82,12,1,0,0.00
2013-5-22,82,73,64,68,65,62,94,78,57,29.92,29.83,12,2,0,0.19
2013-5-23,83,71,60,67,61,57,96,73,46,30.06,29.90,13,3,0,0.01
2013-5-24,74,64,53,57,52,48,89,67,40,30.27,30.06,15,3,0,0.00
2013-5-25,81,65,48,53,49,42,91,60,26,30.33,30.18,7,1,0,0.00
2013-5-26,87,70,52,60,55,49,94,63,35,30.24,30.12,6,1,0,0.00
2013-5-27,85,73,59,64,61,55,91,68,47,30.17,30.04,12,2,0,0.00
2013-5-28,86,76,65,66,62,59,80,64,47,30.13,30.03,11,2,0,0.00
2013-5-29,86,78,69,70,65,59,74,64,52,30.15,30.02,9,2,0,0.00
2013-5-30,84,77,71,71,67,64,79,72,60,30.13,30.01,12,3,0,0.00
2013-5-31,85,78,71,72,68,66,83,72,61,30.10,29.97,10,2,0,0.02
2013-6-1,84,75,68,75,69,65,93,81,69,30.02,29.89,15,2,0,0.16
2013-6-2,82,74,69,70,68,66,95,81,61,29.95,29.87,10,1,0,0.03
2013-6-3,83,73,65,67,63,60,92,72,49,29.98,29.89,11,2,0,0.00
2013-6-4,88,74,61,65,61,57,90,67,40,30.02,29.92,11,1,0,0.00
2013-6-5,79,71,64,71,66,61,95,87,70,29.97,29.86,10,1,0,0.32
2013-6-6,87,74,65,72,68,63,96,82,57,29.87,29.72,8,1,0,0.00
2013-6-7,80,72,66,69,67,63,94,84,65,29.88,29.71,9,2,0,0.00
2013-6-8,84,73,62,68,63,60,96,74,48,30.03,29.86,9,1,0,0.00
2013-6-9,87,75,68,74,69,63,92,82,54,30.02,29.88,11,2,0,0.06
2013-6-10,88,77,67,70,68,65,95,75,49,29.97,29.88,12,3,0,0.63
2013-6-11,94,82,71,76,72,68,91,73,51,30.03,29.94,13,2,0,0.00
2013-6-12,95,84,72,77,73,69,96,72,44,30.05,29.93,11,2,0,0.00
2013-6-13,92,81,72,78,72,65,93,76,60,29.95,29.78,20,4,0,0.00
2013-6-14,85,75,64,66,61,58,86,66,41,30.01,29.88,14,2,0,0.00
2013-6-15,88,76,61,68,64,58,92,68,47,30.09,29.99,8,1,0,0.00
2013-6-16,90,78,66,74,68,63,92,73,55,30.08,29.95,12,1,0,0.00
2013-6-17,89,75,70,74,70,66,95,84,53,30.04,29.88,12,1,0,1.15
2013-6-18,82,74,69,73,69,65,96,83,64,29.95,29.84,13,2,0,0.72
2013-6-19,90,77,64,71,67,62,95,74,45,30.04,29.93,7,1,0,0.00
2013-6-20,89,77,66,72,68,64,95,75,53,30.18,30.04,8,1,0,1.27
2013-6-21,87,75,64,71,67,63,96,77,51,30.21,30.11,8,0,0,0.00
2013-6-22,88,77,66,70,67,64,95,73,49,30.20,30.05,7,1,0,0.00
2013-6-23,90,77,64,72,68,62,94,74,52,30.16,30.04,7,1,0,0.00
2013-6-24,90,79,69,74,71,67,94,79,56,30.18,30.05,13,1,0,0.00
2013-6-25,91,79,73,77,72,71,94,81,55,30.13,29.98,12,1,0,0.01
2013-6-26,92,82,70,76,72,69,95,76,54,30.03,29.87,11,2,0,0.00
2013-6-27,94,81,69,79,72,66,94,77,51,29.95,29.80,15,2,0,0.28
2013-6-28,88,79,72,75,72,69,96,79,57,29.84,29.68,11,2,0,0.00
2013-6-29,89,79,68,72,66,61,96,67,40,29.71,29.64,11,2,0,0.00
2013-6-30,87,75,62,69,64,60,95,71,41,29.79,29.68,12,1,0,0.01
2013-7-1,85,74,62,70,65,61,96,75,53,29.89,29.75,11,1,0,0.02
2013-7-2,85,73,63,68,64,61,96,76,52,30.02,29.87,8,1,0,0.00
2013-7-3,83,74,66,72,68,63,93,83,62,30.10,30.01,8,0,0,0.04
2013-7-4,71,70,68,70,68,66,96,95,92,30.08,30.01,8,0,0,5.68
2013-7-5,76,72,69,72,70,68,96,94,85,30.12,30.03,12,1,0,0.82
2013-7-6,74,71,70,71,70,68,96,94,89,30.11,30.04,5,0,0,0.46
2013-7-7,86,76,70,75,71,68,96,85,65,30.13,30.05,6,0,0,0.04
2013-7-8,88,78,71,76,73,69,96,86,67,30.17,30.06,5,0,0,0.22
2013-7-9,92,81,74,78,74,72,95,81,58,30.16,30.02,8,1,0,0.00
2013-7-10,94,82,70,79,74,68,96,78,57,30.05,29.88,12,2,0,1.21
2013-7-11,89,76,70,78,72,68,96,86,65,29.99,29.85,10,1,0,0.21
2013-7-12,86,76,69,72,68,61,91,75,52,29.96,29.89,13,2,0,0.00
2013-7-13,88,76,62,72,66,59,91,74,52,30.03,29.93,7,1,0,0.00
2013-7-14,88,79,73,74,71,68,91,78,60,30.13,30.01,10,1,0,0.02
2013-7-15,88,80,73,74,71,70,91,77,56,30.23,30.11,9,1,0,0.03
2013-7-16,92,81,73,75,72,69,90,75,54,30.29,30.20,7,1,0,0.00
2013-7-17,94,83,71,77,74,69,96,75,50,30.28,30.13,7,0,0,0.00
2013-7-18,91,82,74,76,72,70,88,75,57,30.16,30.02,8,0,0,0.00
2013-7-19,94,82,70,76,72,68,95,73,49,30.09,29.93,8,1,0,0.00
2013-7-20,90,81,70,76,73,68,95,77,55,30.00,29.87,10,1,0,0.00
2013-7-21,89,78,71,77,72,69,94,84,58,30.00,29.91,11,1,0,0.14
2013-7-22,80,74,70,74,70,68,95,88,73,29.95,29.89,9,2,0,0.01
2013-7-23,81,74,70,76,71,68,95,90,75,29.95,29.84,12,1,0,0.06
2013-7-24,87,76,70,74,71,68,96,85,60,29.91,29.83,7,0,0,0.00
2013-7-25,86,76,66,69,66,62,89,71,51,30.02,29.89,12,2,0,0.00
2013-7-26,88,76,63,69,66,60,94,72,48,30.05,29.95,7,1,0,0.00
2013-7-27,86,77,70,72,69,66,90,76,54,29.96,29.87,12,1,0,0.00
2013-7-28,84,75,68,70,66,61,90,75,55,30.07,29.91,8,1,0,0.00
2013-7-29,84,73,64,64,61,57,87,68,43,30.17,30.05,8,0,0,0.00
2013-7-30,90,76,61,74,67,59,95,77,54,30.20,30.05,7,1,0,0.22
2013-7-31,85,75,68,77,71,65,96,89,75,30.11,29.92,14,1,0,1.08
2013-8-1,88,79,70,74,70,66,95,76,55,30.00,29.93,10,2,0,0.00
2013-8-2,89,78,65,71,67,63,93,72,50,30.03,29.96,7,0,0,0.00
2013-8-3,83,75,67,74,70,65,94,85,73,30.06,29.97,5,0,0,0.00
2013-8-4,88,78,70,74,70,63,96,79,58,30.08,30.00,11,1,0,0.00
2013-8-5,86,75,68,70,66,62,88,74,49,30.06,29.95,6,0,0,0.00
2013-8-6,83,76,71,76,72,67,95,89,77,29.99,29.92,6,0,0,0.42
2013-8-7,89,76,72,79,73,69,96,90,68,30.00,29.91,7,1,0,0.71
2013-8-8,91,76,69,80,72,68,95,88,67,30.00,29.91,18,1,0,0.73
2013-8-9,90,78,72,79,74,70,96,86,65,30.05,29.96,8,1,0,0.04
2013-8-10,86,76,72,77,73,70,96,92,75,30.11,30.03,7,0,0,0.50
2013-8-11,91,79,70,78,74,68,97,85,62,30.14,30.04,13,1,0,0.10
2013-8-12,91,78,72,77,74,70,97,86,60,30.10,29.94,11,1,0,0.83
2013-8-13,86,78,72,75,72,70,95,82,65,29.98,29.89,9,2,0,0.00
2013-8-14,82,73,66,70,65,58,89,76,52,30.03,29.92,11,2,0,0.00
2013-8-15,80,69,60,70,62,56,90,81,69,30.04,29.98,7,0,0,0.00
2013-8-16,74,69,64,65,63,60,90,81,74,30.09,30.01,6,0,0,0.00
2013-8-17,71,68,67,66,64,63,92,86,82,30.12,30.05,6,0,0,0.00
2013-8-18,77,70,65,70,67,63,95,88,71,30.16,30.07,9,0,0,0.08
2013-8-19,83,73,66,74,69,65,96,88,73,30.12,30.01,7,0,0,0.09
2013-8-20,86,77,70,76,72,68,96,86,68,30.13,30.04,9,0,0,0.56
2013-8-21,85,77,72,76,73,69,95,86,73,30.17,30.07,7,0,0,0.00
2013-8-22,92,77,69,78,72,67,96,85,56,30.15,30.02,8,0,0,0.66
2013-8-23,90,79,69,76,72,68,97,81,52,30.08,29.97,6,0,0,0.01
2013-8-24,89,79,70,75,72,68,94,79,58,30.18,30.03,7,0,0,0.00
2013-8-25,86,76,67,71,68,65,93,76,57,30.30,30.18,9,1,0,0.00
2013-8-26,86,74,62,68,64,60,96,75,48,30.30,30.15,7,0,0,0.00
2013-8-27,89,75,62,70,66,61,96,77,49,30.16,30.04,7,0,0,0.00
2013-8-28,92,78,66,74,70,64,96,77,53,30.08,29.98,7,1,0,0.00
2013-8-29,93,80,68,75,72,66,96,77,53,30.05,29.94,11,1,0,0.00
2013-8-30,96,82,72,78,74,70,95,77,51,30.00,29.88,10,1,0,0.00
2013-8-31,95,82,73,78,74,71,95,76,49,29.93,29.82,9,1,0,0.00
2013-9-1,91,81,74,74,71,67,89,72,53,29.93,29.83,12,2,0,0.00
2013-9-2,83,77,69,74,71,68,95,83,70,29.96,29.85,10,1,0,0.27
2013-9-3,89,79,70,74,69,64,95,74,46,29.99,29.89,10,1,0,0.00
2013-9-4,88,76,65,69,65,63,94,72,47,30.12,29.97,8,1,0,0.00
2013-9-5,88,75,61,68,64,59,95,72,48,30.16,30.08,7,0,0,0.00
2013-9-6,91,76,64,70,66,61,94,72,44,30.14,30.03,5,0,0,0.00
2013-9-7,92,77,65,74,68,63,96,77,48,30.10,29.98,8,1,0,0.00
2013-9-8,93,78,65,74,70,64,96,78,48,30.02,29.92,7,0,0,0.00
2013-9-9,91,79,70,75,72,68,96,79,54,30.07,29.97,7,0,0,0.00
2013-9-10,91,80,72,75,72,69,93,76,52,30.17,30.07,6,0,0,0.00
2013-9-11,92,78,69,73,69,67,95,76,46,30.20,30.08,6,0,0,0.00
2013-9-12,93,78,67,72,69,66,96,78,48,30.08,29.90,14,1,0,0.26
2013-9-13,82,73,62,69,62,54,96,72,44,29.97,29.89,12,2,0,0.01
2013-9-14,80,65,51,60,55,49,91,71,47,30.05,29.96,9,1,0,0.00
2013-9-15,84,68,54,67,60,53,96,77,48,30.12,30.05,8,0,0,0.00
2013-9-16,88,72,57,67,60,55,96,70,38,30.16,30.07,9,1,0,0.00
2013-9-17,88,75,64,70,66,61,90,74,48,30.16,30.06,8,1,0,0.00
2013-9-18,83,73,66,69,65,61,84,77,63,30.18,30.07,10,1,0,0.00
2013-9-19,87,75,67,70,66,63,88,75,54,30.16,30.02,9,1,0,0.00
2013-9-20,87,75,64,70,66,62,94,76,54,30.04,29.83,7,1,0,0.08
2013-9-21,75,68,56,70,64,54,95,87,61,29.84,29.72,12,2,0,2.34
2013-9-22,78,64,52,58,54,50,94,73,46,29.91,29.84,9,1,0,0.01
2013-9-23,82,68,54,64,59,51,94,75,51,29.98,29.89,7,0,0,0.00
2013-9-24,75,68,59,68,64,57,95,88,78,29.98,29.84,9,0,0,0.02
2013-9-25,82,70,66,70,66,64,94,87,63,29.86,29.79,6,0,0,0.01
2013-9-26,83,72,65,67,64,62,94,78,53,30.00,29.85,6,0,0,0.00
2013-9-27,83,69,58,67,62,56,96,79,49,30.12,29.99,6,0,0,0.00
2013-9-28,80,66,57,61,58,55,98,78,48,30.20,30.07,8,1,0,0.00
2013-9-29,76,66,57,62,58,54,94,79,56,30.12,30.00,8,0,0,0.01
2013-9-30,78,67,62,65,61,58,93,82,63,30.07,29.97,6,0,0,0.08
2013-10-1,84,69,58,70,64,56,95,84,60,30.13,30.01,6,0,0,0.00
2013-10-2,85,72,62,69,66,60,96,81,54,30.14,30.04,6,0,0,0.00
2013-10-3,86,74,63,68,66,61,96,77,52,30.11,30.00,7,0,0,0.00
2013-10-4,85,74,64,72,67,62,95,81,61,30.12,30.04,7,0,0,0.00
2013-10-5,88,76,67,72,68,65,94,77,57,30.08,29.93,8,1,0,0.00
2013-10-6,79,70,55,72,65,52,92,84,71,29.94,29.80,13,2,0,0.10
2013-10-7,70,60,50,54,50,48,95,74,49,30.08,29.91,14,2,0,0.00
2013-10-8,79,64,51,60,53,46,85,70,50,30.11,30.04,9,1,0,0.00
2013-10-9,78,67,60,61,57,52,87,70,52,30.18,30.09,10,1,0,0.00
2013-10-10,82,68,56,64,60,54,95,78,47,30.15,30.02,6,1,0,0.00
2013-10-11,84,66,54,63,58,52,96,78,45,30.09,29.99,6,0,0,0.00
2013-10-12,83,67,52,64,59,50,96,78,48,30.12,30.02,9,1,0,0.00
2013-10-13,83,68,57,64,59,56,96,76,49,30.22,30.11,8,0,0,0.00
2013-10-14,81,69,59,66,61,56,93,78,54,30.21,30.07,7,0,0,0.00
2013-10-15,76,68,63,63,61,59,90,79,60,30.12,30.00,8,0,0,0.00
2013-10-16,68,65,63,65,62,59,95,90,84,30.04,29.91,6,0,0,0.40
2013-10-17,66,61,49,64,58,48,96,91,80,30.02,29.88,8,1,0,0.10
2013-10-18,66,54,45,55,49,44,96,85,57,30.10,29.97,9,0,0,0.00
2013-10-19,69,56,44,58,51,42,95,83,62,30.07,29.93,13,2,0,0.00
2013-10-20,69,50,36,46,40,34,95,74,34,30.13,30.04,4,0,0,0.00
2013-10-21,72,54,38,52,45,36,96,74,38,30.12,30.01,7,0,0,0.00
2013-10-22,67,56,45,56,50,43,95,84,64,30.04,29.90,6,0,0,0.00
2013-10-23,59,48,39,45,40,36,95,75,44,30.14,29.91,14,2,0,0.00
2013-10-24,62,48,38,45,40,35,93,76,51,30.34,30.14,9,1,0,0.00
2013-10-25,55,41,29,34,29,25,89,66,35,30.50,30.34,8,1,0,0.00
2013-10-26,62,46,28,44,34,25,95,69,35,30.36,30.17,9,1,0,0.00
2013-10-27,71,59,50,55,50,42,84,71,54,30.16,30.08,7,0,0,0.00
2013-10-28,71,60,54,59,55,52,94,85,64,30.26,30.11,7,0,0,0.02
2013-10-29,77,62,51,64,57,49,96,85,62,30.30,30.18,8,0,0,0.01
2013-10-30,80,66,57,63,58,55,95,76,45,30.26,30.09,10,1,0,0.00
2013-10-31,74,68,63,66,61,56,92,79,71,30.09,29.70,21,4,0,0.17
2013-11-1,72,61,46,63,52,44,96,76,41,29.87,29.73,10,1,0,0.01
2013-11-2,67,53,43,49,42,38,95,71,36,30.16,29.86,13,2,0,0.00
2013-11-3,62,48,37,41,37,33,94,70,33,30.33,30.16,7,1,0,0.00
2013-11-4,67,53,36,43,40,33,93,65,40,30.40,30.28,13,1,0,0.00
2013-11-5,64,56,51,46,41,37,80,58,48,30.40,30.26,13,2,0,0.00
2013-11-6,75,64,49,62,56,42,93,76,59,30.26,30.05,14,2,0,0.41
2013-11-7,61,48,32,59,40,29,94,73,42,30.34,30.06,12,4,0,0.16
2013-11-8,60,43,30,37,32,27,95,70,31,30.42,30.26,10,1,0,0.00
2013-11-9,62,49,37,45,39,33,90,71,44,30.35,30.24,5,0,0,0.00
2013-11-10,70,54,41,49,42,32,95,65,37,30.34,30.26,8,1,0,0.00
2013-11-11,72,51,34,40,34,28,88,57,21,30.32,30.17,5,0,0,0.00
2013-11-12,50,42,32,43,29,14,82,62,41,30.59,30.19,21,4,0,0.00
2013-11-13,49,35,25,23,19,14,86,56,28,30.69,30.49,10,1,0,0.00
2013-11-14,59,40,22,28,23,19,92,59,22,30.50,30.24,9,1,0,0.00
2013-11-15,55,50,45,50,42,26,95,75,46,30.25,30.09,10,0,0,0.16
2013-11-16,65,59,51,59,55,49,95,87,80,30.15,30.02,8,2,0,0.01
2013-11-17,69,65,59,67,62,56,96,91,73,30.03,29.82,11,2,0,0.46
2013-11-18,66,56,46,57,43,33,93,64,36,30.19,29.93,13,2,0,0.01
2013-11-19,54,45,36,32,30,27,73,55,37,30.26,30.15,13,2,0,0.00
2013-11-20,61,48,31,40,34,27,90,60,38,30.27,30.16,13,2,0,0.00
2013-11-21,62,57,48,54,47,40,85,70,60,30.32,30.23,11,2,0,0.01
2013-11-22,62,57,49,59,54,46,94,88,82,30.29,30.20,8,1,0,0.05
2013-11-23,51,44,30,47,36,19,92,75,51,30.47,30.26,17,5,0,0.00
2013-11-24,40,30,23,19,15,11,72,55,33,30.62,30.47,17,4,0,0.00
2013-11-25,42,36,27,36,24,13,92,64,39,30.47,30.16,9,1,0,0.61
2013-11-26,46,40,35,44,38,30,95,92,80,30.16,29.83,17,4,0,1.29
2013-11-27,36,31,21,30,20,13,80,64,47,30.40,29.93,19,6,0,0.00
2013-11-28,48,29,17,24,18,13,86,67,32,30.55,30.40,4,0,0,0.00
2013-11-29,56,36,22,29,24,19,93,68,35,30.61,30.49,7,0,0,0.00
2013-11-30,58,43,28,32,29,24,89,61,34,30.53,30.29,8,1,0,0.00
2013-12-1,57,46,30,44,36,26,92,68,50,30.29,30.00,6,0,0,0.05
2013-12-2,57,51,47,52,49,43,94,90,85,30.00,29.78,5,0,0,0.05
2013-12-3,62,55,50,57,53,49,95,93,85,29.84,29.77,8,1,0,0.00
2013-12-4,73,66,59,63,61,57,95,86,70,29.93,29.82,15,2,0,0.00
2013-12-5,77,64,42,68,60,40,93,86,69,30.03,29.87,13,3,0,0.02
2013-12-6,43,39,35,41,37,32,93,92,89,30.32,29.97,13,3,0,0.71
2013-12-7,35,33,32,32,30,28,91,88,86,30.48,30.30,12,4,0,0.01
2013-12-8,47,41,35,46,39,32,96,94,87,30.31,30.10,5,0,0,1.22
2013-12-9,47,40,34,46,38,32,95,93,89,30.23,30.09,10,3,0,0.26
2013-12-10,42,33,26,32,29,24,93,84,63,30.42,30.11,13,3,0,0.10
2013-12-11,52,35,21,33,25,19,95,71,34,30.52,30.42,7,0,0,0.00
2013-12-12,43,30,22,25,18,13,83,65,35,30.62,30.45,18,2,0,0.00
2013-12-13,48,36,21,30,24,17,89,64,42,30.44,30.12,5,0,0,0.00
2013-12-14,52,46,38,51,42,30,95,86,55,30.12,29.82,13,4,0,0.65
2013-12-15,38,34,30,34,30,26,88,84,77,30.30,30.02,13,3,0,0.00
2013-12-16,58,38,27,38,30,24,93,76,39,30.32,30.19,15,1,0,0.00
2013-12-17,62,44,29,42,34,27,94,70,46,30.31,30.13,12,2,0,0.00
2013-12-18,54,38,25,31,25,20,93,65,28,30.41,30.26,6,0,0,0.00
2013-12-19,63,50,35,40,32,27,71,52,38,30.31,30.11,9,1,0,0.00
2013-12-20,67,60,54,58,51,33,85,71,44,30.12,29.97,12,2,0,0.00
2013-12-21,73,68,63,67,63,58,92,86,81,29.98,29.73,19,4,0,0.15
2013-12-22,69,56,53,62,54,52,94,91,79,30.08,29.77,13,1,0,1.22
2013-12-23,54,38,28,52,34,24,93,84,70,30.46,30.07,13,4,0,0.00
2013-12-24,37,29,23,24,19,14,87,69,48,30.59,30.45,17,2,0,0.00
2013-12-25,50,32,19,28,22,14,98,70,40,30.49,30.35,7,1,0,0.00
2013-12-26,51,35,23,34,27,21,94,76,49,30.44,30.36,10,1,0,0.00
2013-12-27,57,37,24,32,25,21,92,67,26,30.51,30.40,9,0,0,0.00
2013-12-28,46,39,31,40,34,25,94,83,56,30.40,29.96,6,0,0,0.58
2013-12-29,55,44,40,44,40,38,95,88,63,30.12,29.93,7,1,0,0.22
2013-12-30,45,37,33,42,32,29,89,83,77,30.32,30.11,12,2,0,0.00
2013-12-31,42,33,28,29,27,25,92,80,58,30.52,30.32,7,1,0,0.00
2014-1-1,52,38,25,40,31,23,94,77,53,30.38,30.07,7,1,0,0.01
2014-1-2,48,37,22,47,31,11,95,82,64,30.36,29.88,20,6,0,0.33